Time;durP1;ratioP1;P1;durP2;ratioP2;P2;SDS_P1;SDS_P2;PMS_P1;PMS_P2;Temp;Humidity;BMP_temperature;BMP_pressure;BME280_temperature;BME280_humidity;BME280_pressure;Samples;Min_cycle;Max_cycle;Signal;HPM_P1;HPM_P2
2024/01/28 00:01:47;;;;;;;90.93;85.73;;;6.30;99.90;;;;;;5051055;28;20032;-72
2024/01/28 00:04:13;;;;;;;76.67;72.23;;;6.20;99.90;;;;;;5051681;28;20029;-72
2024/01/28 00:06:39;;;;;;;71.97;67.83;;;6.30;99.90;;;;;;5051557;28;20049;-73
2024/01/28 00:09:06;;;;;;;89.20;83.63;;;6.30;99.90;;;;;;5051136;28;20044;-73
2024/01/28 00:11:32;;;;;;;74.13;70.03;;;6.20;99.90;;;;;;5051645;28;20041;-73
2024/01/28 00:13:58;;;;;;;68.83;64.87;;;6.20;99.90;;;;;;5051584;28;20037;-73
2024/01/28 00:16:24;;;;;;;67.63;63.70;;;6.20;99.90;;;;;;5050517;28;20037;-73
2024/01/28 00:18:57;;;;;;;72.70;67.73;;;6.20;99.90;;;;;;5051588;28;20471;-73
2024/01/28 00:21:24;;;;;;;72.73;68.43;;;6.30;99.90;;;;;;5041299;28;20365;-73
2024/01/28 00:23:51;;;;;;;79.30;74.50;;;6.30;99.90;;;;;;5032071;28;20044;-73
2024/01/28 00:26:17;;;;;;;74.00;69.90;;;6.30;99.90;;;;;;5031162;28;20050;-73
2024/01/28 00:28:43;;;;;;;85.73;80.77;;;6.30;99.90;;;;;;5031900;28;20483;-73
2024/01/28 00:31:12;;;;;;;82.93;78.17;;;6.20;99.90;;;;;;5031157;28;20037;-72
2024/01/28 00:33:38;;;;;;;78.67;74.17;;;6.20;99.90;;;;;;5031405;28;20049;-72
2024/01/28 00:36:05;;;;;;;87.83;82.87;;;6.30;99.90;;;;;;5031474;28;20033;-73
2024/01/28 00:38:32;;;;;;;89.70;84.80;;;6.20;99.90;;;;;;5031672;28;20040;-73
2024/01/28 00:40:59;;;;;;;80.97;76.50;;;6.10;99.90;;;;;;5030974;28;20040;-73
2024/01/28 00:43:25;;;;;;;78.57;74.07;;;6.20;99.90;;;;;;5034265;28;20057;-72
2024/01/28 00:45:51;;;;;;;73.27;69.20;;;6.10;99.90;;;;;;5034770;28;20105;-73
2024/01/28 00:48:17;;;;;;;73.27;68.77;;;6.10;99.90;;;;;;5035226;28;20038;-73
2024/01/28 00:50:43;;;;;;;75.27;70.87;;;6.10;99.90;;;;;;5017689;28;20033;-73
2024/01/28 00:53:09;;;;;;;63.23;59.50;;;6.10;99.90;;;;;;5034761;28;20048;-72
2024/01/28 00:55:36;;;;;;;56.30;52.83;;;6.10;99.90;;;;;;5035128;28;20049;-73
2024/01/28 00:58:05;;;;;;;71.90;67.80;;;6.10;99.90;;;;;;5035432;28;20038;-73
2024/01/28 01:00:31;;;;;;;71.23;67.27;;;6.00;99.90;;;;;;5034537;28;20029;-72
2024/01/28 01:02:57;;;;;;;78.67;74.27;;;6.00;99.90;;;;;;5034884;28;20042;-73
2024/01/28 01:05:23;;;;;;;60.00;56.60;;;5.90;99.90;;;;;;5034809;28;20030;-73
2024/01/28 01:07:49;;;;;;;61.60;58.00;;;5.90;99.90;;;;;;5035237;28;20046;-73
2024/01/28 01:10:15;;;;;;;76.43;72.27;;;5.90;99.90;;;;;;5034691;28;20045;-73
2024/01/28 01:12:41;;;;;;;66.33;62.13;;;5.90;99.90;;;;;;5035148;28;20396;-73
2024/01/28 01:15:07;;;;;;;63.17;59.30;;;5.90;99.90;;;;;;5034478;28;20030;-73
2024/01/28 01:17:33;;;;;;;68.83;65.03;;;5.80;99.90;;;;;;5045585;28;20037;-72
2024/01/28 01:20:00;;;;;;;65.27;61.40;;;5.80;99.90;;;;;;5054853;28;20032;-73
2024/01/28 01:22:26;;;;;;;47.93;45.13;;;5.70;99.90;;;;;;5035604;28;20029;-72
2024/01/28 01:24:53;;;;;;;52.67;49.23;;;5.70;99.90;;;;;;5034894;28;20033;-73
2024/01/28 01:27:19;;;;;;;58.40;54.83;;;5.80;99.90;;;;;;5034561;28;20400;-73
2024/01/28 01:29:45;;;;;;;57.67;54.07;;;5.90;99.90;;;;;;5034731;28;20026;-73
2024/01/28 01:32:11;;;;;;;47.90;45.00;;;5.90;99.90;;;;;;5032844;28;20041;-72
2024/01/28 01:34:37;;;;;;;56.70;53.40;;;5.90;99.90;;;;;;5016817;28;20403;-72
2024/01/28 01:37:03;;;;;;;69.63;65.53;;;5.90;99.90;;;;;;5034302;28;20041;-73
2024/01/28 01:39:30;;;;;;;63.10;59.27;;;6.10;99.90;;;;;;5034736;28;20021;-73
2024/01/28 01:41:56;;;;;;;48.13;45.03;;;6.10;99.90;;;;;;5034048;28;20778;-73
2024/01/28 01:44:22;;;;;;;47.67;44.67;;;6.00;99.90;;;;;;5034556;28;20036;-72
2024/01/28 01:46:49;;;;;;;67.90;63.97;;;5.90;99.90;;;;;;5013050;28;20041;-73
2024/01/28 01:49:15;;;;;;;72.27;67.70;;;5.90;99.90;;;;;;5036153;28;20044;-73
2024/01/28 01:51:41;;;;;;;112.10;106.07;;;5.80;99.90;;;;;;5019716;28;20037;-72
2024/01/28 01:54:07;;;;;;;100.63;95.07;;;5.70;99.90;;;;;;5035622;28;20029;-73
2024/01/28 01:56:34;;;;;;;65.90;61.70;;;5.70;99.90;;;;;;5024546;28;20048;-73
2024/01/28 01:59:02;;;;;;;44.97;42.17;;;5.70;99.90;;;;;;5034089;28;20029;-73
2024/01/28 02:01:29;;;;;;;54.57;51.33;;;5.80;99.90;;;;;;5015088;28;20041;-73
2024/01/28 02:03:57;;;;;;;61.57;57.57;;;5.80;99.90;;;;;;5016591;28;20383;-73
2024/01/28 02:06:23;;;;;;;60.17;56.63;;;5.90;99.90;;;;;;5033080;28;20389;-73
2024/01/28 02:08:49;;;;;;;55.53;52.33;;;6.00;99.90;;;;;;5034153;28;20041;-72
2024/01/28 02:11:15;;;;;;;55.10;51.43;;;6.10;99.90;;;;;;5033517;28;20476;-73
2024/01/28 02:13:42;;;;;;;54.47;51.43;;;6.10;99.90;;;;;;5033531;28;20048;-72
2024/01/28 02:16:08;;;;;;;49.37;46.37;;;6.10;99.90;;;;;;5032953;28;20037;-73
2024/01/28 02:18:34;;;;;;;46.07;42.97;;;6.10;99.90;;;;;;5053336;28;20680;-73
2024/01/28 02:21:00;;;;;;;48.53;45.67;;;5.90;99.90;;;;;;5046316;28;20040;-72
2024/01/28 02:23:26;;;;;;;48.53;45.57;;;5.90;99.90;;;;;;5033920;28;20483;-73
2024/01/28 02:25:52;;;;;;;54.10;50.67;;;6.00;99.90;;;;;;5033308;28;20041;-73
2024/01/28 02:28:18;;;;;;;46.20;43.13;;;6.00;99.90;;;;;;5033753;28;20622;-72
2024/01/28 02:30:44;;;;;;;45.57;42.37;;;5.90;99.90;;;;;;5032694;28;20030;-73
2024/01/28 02:33:10;;;;;;;48.33;45.33;;;5.90;99.90;;;;;;5033579;28;20577;-72
2024/01/28 02:35:37;;;;;;;61.27;57.43;;;5.70;99.90;;;;;;5033190;28;20030;-72
2024/01/28 02:38:03;;;;;;;43.73;41.03;;;5.60;99.90;;;;;;5015603;28;20044;-73
2024/01/28 02:40:30;;;;;;;45.20;42.20;;;5.70;99.90;;;;;;5033586;28;20037;-73
2024/01/28 02:42:56;;;;;;;42.23;39.40;;;5.80;99.90;;;;;;5032639;28;20041;-73
2024/01/28 02:45:23;;;;;;;59.80;56.20;;;5.70;99.90;;;;;;5014674;28;20415;-73
2024/01/28 02:47:49;;;;;;;72.03;67.73;;;5.70;99.90;;;;;;5032904;28;20048;-73
2024/01/28 02:50:15;;;;;;;91.03;86.13;;;5.80;99.90;;;;;;5032987;28;20022;-73
2024/01/28 02:52:41;;;;;;;117.23;110.83;;;5.90;99.90;;;;;;5033267;28;20468;-73
2024/01/28 02:55:07;;;;;;;49.40;46.37;;;6.00;99.90;;;;;;5032989;28;20029;-73
2024/01/28 02:57:33;;;;;;;56.20;52.90;;;5.80;99.90;;;;;;5052807;28;20033;-73
2024/01/28 03:00:00;;;;;;;64.10;59.93;;;5.80;99.90;;;;;;5052088;28;20017;-73
2024/01/28 03:02:26;;;;;;;49.17;45.73;;;5.90;99.90;;;;;;5039629;28;20033;-73
2024/01/28 03:04:52;;;;;;;44.83;41.93;;;5.80;99.90;;;;;;5041288;28;20025;-73
2024/01/28 03:07:18;;;;;;;62.53;58.47;;;5.70;99.90;;;;;;5041040;28;20052;-73
2024/01/28 03:09:44;;;;;;;46.13;43.10;;;5.90;99.90;;;;;;5046631;28;20041;-72
2024/01/28 03:12:10;;;;;;;46.70;43.40;;;5.80;99.90;;;;;;5047949;28;20447;-73
2024/01/28 03:14:36;;;;;;;43.33;40.13;;;5.60;99.90;;;;;;5051145;28;20029;-73
2024/01/28 03:17:02;;;;;;;45.83;42.87;;;5.50;99.90;;;;;;5050432;28;20037;-73
2024/01/28 03:19:28;;;;;;;49.03;46.00;;;5.60;99.90;;;;;;5051432;28;20029;-72
2024/01/28 03:21:55;;;;;;;109.27;103.17;;;5.60;99.90;;;;;;5036139;28;20522;-73
2024/01/28 03:24:22;;;;;;;64.80;60.87;;;5.60;99.90;;;;;;5051038;28;20037;-73
2024/01/28 03:26:48;;;;;;;45.47;42.67;;;5.70;99.90;;;;;;5050284;28;20593;-73
2024/01/28 03:29:14;;;;;;;43.17;40.43;;;5.60;99.90;;;;;;5050973;28;20044;-73
2024/01/28 03:31:41;;;;;;;46.30;43.47;;;5.40;99.90;;;;;;5050255;28;20483;-72
2024/01/28 03:34:07;;;;;;;42.47;39.60;;;5.30;99.90;;;;;;5051190;28;20044;-73
2024/01/28 03:36:33;;;;;;;59.17;55.40;;;5.30;99.90;;;;;;5050308;28;20049;-73
2024/01/28 03:38:59;;;;;;;49.20;46.20;;;5.20;99.90;;;;;;5034403;28;20033;-73
2024/01/28 03:41:25;;;;;;;42.10;39.33;;;5.30;99.90;;;;;;5051521;28;20045;-73
2024/01/28 03:43:51;;;;;;;43.50;40.87;;;5.20;99.90;;;;;;5051848;28;20040;-73
2024/01/28 03:46:17;;;;;;;41.03;38.43;;;5.20;99.90;;;;;;5051289;28;20068;-73
2024/01/28 03:48:43;;;;;;;94.03;88.80;;;5.20;99.90;;;;;;5052308;28;20029;-72
2024/01/28 03:51:10;;;;;;;128.47;121.47;;;5.20;99.90;;;;;;5051913;28;20455;-73
2024/01/28 03:53:36;;;;;;;127.90;120.83;;;5.30;99.90;;;;;;5051586;28;20040;-73
2024/01/28 03:56:02;;;;;;;109.37;103.17;;;5.30;99.90;;;;;;5051461;28;20024;-72
2024/01/28 03:58:28;;;;;;;88.33;83.53;;;5.40;99.90;;;;;;5034327;28;20033;-73
2024/01/28 04:00:54;;;;;;;86.90;82.00;;;5.50;99.90;;;;;;5051148;28;20037;-73
2024/01/28 04:03:20;;;;;;;76.47;71.57;;;5.60;99.90;;;;;;5052062;28;20037;-73
2024/01/28 04:05:46;;;;;;;60.40;56.90;;;5.60;99.90;;;;;;5051587;28;20448;-72
2024/01/28 04:08:13;;;;;;;47.33;44.23;;;5.60;99.90;;;;;;5051922;28;20048;-73
2024/01/28 04:10:39;;;;;;;45.47;42.47;;;5.50;99.90;;;;;;5051147;28;20479;-72
2024/01/28 04:13:05;;;;;;;43.37;40.70;;;5.40;99.90;;;;;;5051969;28;20502;-72
2024/01/28 04:15:31;;;;;;;46.50;43.50;;;5.30;99.90;;;;;;5051207;28;20036;-73
2024/01/28 04:17:57;;;;;;;147.70;139.97;;;5.20;99.90;;;;;;5035753;28;20032;-73
2024/01/28 04:20:23;;;;;;;104.27;98.20;;;5.30;99.90;;;;;;5053551;28;20033;-72
2024/01/28 04:22:49;;;;;;;108.80;103.00;;;5.40;99.90;;;;;;5036013;28;20036;-72
2024/01/28 04:25:18;;;;;;;92.27;86.93;;;5.40;99.90;;;;;;5034884;28;20404;-73
2024/01/28 04:27:44;;;;;;;73.50;69.33;;;5.40;99.90;;;;;;5035284;28;20045;-73
2024/01/28 04:30:11;;;;;;;109.53;103.63;;;5.60;99.90;;;;;;5017063;28;20045;-73
2024/01/28 04:32:37;;;;;;;76.53;72.07;;;5.60;99.90;;;;;;5035129;28;20038;-72
2024/01/28 04:35:03;;;;;;;53.63;50.23;;;5.50;99.90;;;;;;5035670;28;20033;-73
2024/01/28 04:37:30;;;;;;;75.20;70.37;;;5.30;99.90;;;;;;5035622;28;20037;-73
2024/01/28 04:39:56;;;;;;;84.07;79.20;;;5.30;99.90;;;;;;5034840;28;20104;-73
2024/01/28 04:42:22;;;;;;;79.07;74.60;;;5.30;99.90;;;;;;5001245;28;20455;-73
2024/01/28 04:44:49;;;;;;;72.83;68.17;;;5.40;99.90;;;;;;5035665;28;20033;-73
2024/01/28 04:47:15;;;;;;;112.43;106.27;;;5.20;99.90;;;;;;5034801;28;20563;-72
2024/01/28 04:49:42;;;;;;;108.80;102.50;;;5.20;99.90;;;;;;5017628;28;20033;-72
2024/01/28 04:52:08;;;;;;;112.30;105.97;;;5.30;99.90;;;;;;5035255;28;20037;-73
2024/01/28 04:54:34;;;;;;;77.03;72.50;;;5.20;99.90;;;;;;5017388;28;20036;-73
2024/01/28 04:57:01;;;;;;;51.20;47.93;;;5.30;99.90;;;;;;5034471;28;20404;-73
2024/01/28 04:59:28;;;;;;;53.60;50.47;;;5.10;99.90;;;;;;5035026;28;20386;-73
2024/01/28 05:01:55;;;;;;;46.33;43.30;;;4.90;99.90;;;;;;5034548;28;20502;-72
2024/01/28 05:04:21;;;;;;;61.90;58.00;;;4.80;99.90;;;;;;5034557;28;20042;-72
2024/01/28 05:06:47;;;;;;;60.93;57.33;;;4.90;99.90;;;;;;5034913;28;20041;-73
2024/01/28 05:09:13;;;;;;;67.03;63.17;;;4.90;99.90;;;;;;5034620;28;20400;-73
2024/01/28 05:11:39;;;;;;;59.97;56.37;;;4.90;99.90;;;;;;5034912;28;20038;-72
2024/01/28 05:14:05;;;;;;;56.30;52.67;;;4.80;99.90;;;;;;5017204;28;20041;-72
2024/01/28 05:16:31;;;;;;;52.67;49.07;;;4.90;99.90;;;;;;5036430;28;20045;-73
2024/01/28 05:18:58;;;;;;;58.43;55.00;;;4.80;99.90;;;;;;5054873;28;20032;-72
2024/01/28 05:21:24;;;;;;;61.03;57.43;;;4.80;99.90;;;;;;5026532;28;20029;-73
2024/01/28 05:23:50;;;;;;;53.67;50.17;;;4.70;99.90;;;;;;5034586;28;20026;-72
2024/01/28 05:26:17;;;;;;;41.37;38.77;;;4.70;99.90;;;;;;5034487;28;20037;-73
2024/01/28 05:28:44;;;;;;;46.93;43.73;;;4.70;99.90;;;;;;5034281;28;20056;-72
2024/01/28 05:31:11;;;;;;;46.97;43.87;;;4.70;99.90;;;;;;5033591;28;20044;-72
2024/01/28 05:33:40;;;;;;;46.67;43.57;;;4.70;99.90;;;;;;5034948;28;20085;-72
2024/01/28 05:36:13;;;;;;;50.10;46.70;;;4.70;99.90;;;;;;5033866;28;20045;-73
2024/01/28 05:38:39;;;;;;;45.27;42.17;;;4.60;99.90;;;;;;5034432;28;20025;-73
2024/01/28 05:41:06;;;;;;;37.80;35.37;;;4.60;99.90;;;;;;5033024;28;20396;-73
2024/01/28 05:43:32;;;;;;;54.63;51.37;;;4.50;99.90;;;;;;5034652;28;20026;-73
2024/01/28 05:46:00;;;;;;;47.33;44.33;;;4.50;99.90;;;;;;5032998;28;20487;-73
2024/01/28 05:48:26;;;;;;;43.47;40.67;;;4.50;99.90;;;;;;5034380;28;20060;-73
2024/01/28 05:50:52;;;;;;;55.43;51.87;;;4.50;99.90;;;;;;5034201;28;20029;-73
2024/01/28 05:53:19;;;;;;;46.63;43.43;;;4.50;99.90;;;;;;5033436;28;20049;-73
2024/01/28 05:55:45;;;;;;;39.53;36.87;;;4.50;99.90;;;;;;5033395;28;20391;-72
2024/01/28 05:58:11;;;;;;;53.17;49.80;;;4.40;99.90;;;;;;5034458;28;20021;-73
2024/01/28 06:00:37;;;;;;;33.60;31.10;;;4.40;99.90;;;;;;5033410;28;20029;-72
2024/01/28 06:03:04;;;;;;;45.73;42.63;;;4.40;99.90;;;;;;5034167;28;20044;-73
2024/01/28 06:05:30;;;;;;;53.83;50.63;;;4.40;99.90;;;;;;5033322;28;20388;-73
2024/01/28 06:07:56;;;;;;;44.13;41.30;;;4.40;99.90;;;;;;5033866;28;20049;-73
2024/01/28 06:10:22;;;;;;;48.10;45.00;;;4.30;99.90;;;;;;5033646;28;20484;-72
2024/01/28 06:12:48;;;;;;;52.30;49.20;;;4.30;99.90;;;;;;5033974;28;20052;-73
2024/01/28 06:15:14;;;;;;;44.10;41.30;;;4.30;99.90;;;;;;5033167;28;20033;-72
2024/01/28 06:17:40;;;;;;;42.07;39.30;;;4.40;99.90;;;;;;5046020;28;20036;-73
2024/01/28 06:20:07;;;;;;;53.07;49.67;;;4.30;99.90;;;;;;5053294;28;20479;-73
2024/01/28 06:22:33;;;;;;;50.77;47.33;;;4.30;99.90;;;;;;5033068;28;20045;-73
2024/01/28 06:25:00;;;;;;;36.17;34.03;;;4.40;99.90;;;;;;5033005;28;20036;-73
2024/01/28 06:27:26;;;;;;;52.67;49.43;;;4.30;99.90;;;;;;5052617;28;20033;-72
2024/01/28 06:29:53;;;;;;;42.43;39.73;;;4.20;99.90;;;;;;5053538;28;20041;-73
2024/01/28 06:32:21;;;;;;;43.77;40.83;;;4.20;99.90;;;;;;5033929;28;20037;-72
2024/01/28 06:34:47;;;;;;;45.37;42.50;;;4.30;99.90;;;;;;5032760;28;20040;-73
2024/01/28 06:37:13;;;;;;;50.70;47.60;;;4.40;99.90;;;;;;5032909;28;20041;-72
2024/01/28 06:39:39;;;;;;;53.47;50.23;;;4.40;99.90;;;;;;5033021;28;20037;-72
2024/01/28 06:42:05;;;;;;;37.10;34.63;;;4.30;99.90;;;;;;5033180;28;20045;-73
2024/01/28 06:44:32;;;;;;;45.13;42.03;;;4.30;99.90;;;;;;5033220;28;20056;-72
2024/01/28 06:47:02;;;;;;;41.00;38.27;;;4.20;99.90;;;;;;5014946;28;20045;-72
2024/01/28 06:49:28;;;;;;;40.73;38.03;;;4.20;99.90;;;;;;5032509;28;20045;-73
2024/01/28 06:51:54;;;;;;;41.03;38.43;;;4.10;99.90;;;;;;5032571;28;20040;-72
2024/01/28 06:54:21;;;;;;;37.20;34.67;;;4.10;99.90;;;;;;5033121;28;20412;-72
2024/01/28 06:56:50;;;;;;;50.70;47.20;;;4.10;99.90;;;;;;5032803;28;20488;-72
2024/01/28 06:59:18;;;;;;;56.27;52.73;;;4.10;99.90;;;;;;5032303;28;20049;-72
2024/01/28 07:01:47;;;;;;;51.23;48.13;;;4.20;99.90;;;;;;5031593;28;20038;-72
2024/01/28 07:04:13;;;;;;;47.03;44.00;;;4.20;99.90;;;;;;5033109;28;20034;-72
2024/01/28 07:06:39;;;;;;;46.17;43.40;;;4.20;99.90;;;;;;5031784;28;20044;-72
2024/01/28 07:09:05;;;;;;;38.50;35.70;;;4.10;99.90;;;;;;5032810;28;20072;-72
2024/01/28 07:11:31;;;;;;;45.77;42.77;;;4.10;99.90;;;;;;5015008;28;20038;-72
2024/01/28 07:13:58;;;;;;;35.27;32.73;;;4.00;99.90;;;;;;5015318;28;20037;-72
2024/01/28 07:16:24;;;;;;;37.83;34.83;;;4.00;99.90;;;;;;5032891;28;20041;-72
2024/01/28 07:18:50;;;;;;;34.93;32.37;;;4.00;99.90;;;;;;5052764;28;20478;-71
2024/01/28 07:21:16;;;;;;;33.20;30.43;;;4.00;99.90;;;;;;5052207;28;20037;-72
2024/01/28 07:23:42;;;;;;;33.40;31.13;;;4.00;99.90;;;;;;5052621;28;20040;-72
2024/01/28 07:26:09;;;;;;;35.20;32.43;;;4.00;99.90;;;;;;5051389;28;20036;-71
2024/01/28 07:28:35;;;;;;;47.47;44.80;;;4.10;99.90;;;;;;5051728;28;20052;-72
2024/01/28 07:31:01;;;;;;;35.50;32.83;;;4.00;99.90;;;;;;5051077;28;20483;-72
2024/01/28 07:33:27;;;;;;;30.50;28.33;;;3.90;99.90;;;;;;5052188;28;20045;-72
2024/01/28 07:35:53;;;;;;;34.23;32.00;;;3.90;99.90;;;;;;5051893;28;20037;-72
2024/01/28 07:38:19;;;;;;;33.40;30.83;;;3.90;99.90;;;;;;5051326;28;20029;-73
2024/01/28 07:40:46;;;;;;;33.83;31.50;;;3.90;99.90;;;;;;5052298;28;20487;-74
2024/01/28 07:43:12;;;;;;;36.07;33.70;;;3.80;99.90;;;;;;5034394;28;20506;-71
2024/01/28 07:45:38;;;;;;;39.83;37.67;;;3.90;99.90;;;;;;5051665;28;20399;-72
2024/01/28 07:48:05;;;;;;;36.50;34.27;;;3.90;99.90;;;;;;5051796;28;20055;-71
2024/01/28 07:50:31;;;;;;;30.67;28.37;;;3.90;99.90;;;;;;5052213;28;20033;-72
2024/01/28 07:52:57;;;;;;;35.43;33.03;;;3.90;99.90;;;;;;5051309;28;20040;-71
2024/01/28 07:55:23;;;;;;;32.20;29.73;;;3.80;99.90;;;;;;5051994;28;20040;-71
2024/01/28 07:57:49;;;;;;;45.10;42.40;;;3.80;99.90;;;;;;5052099;28;20040;-71
2024/01/28 08:00:15;;;;;;;37.60;34.93;;;3.80;99.90;;;;;;5051561;28;20040;-71
2024/01/28 08:02:42;;;;;;;41.90;39.40;;;3.80;99.90;;;;;;5051861;28;20040;-71
2024/01/28 08:05:08;;;;;;;35.70;33.23;;;3.80;99.90;;;;;;5051317;28;20040;-72
2024/01/28 08:07:34;;;;;;;41.03;38.43;;;3.90;99.90;;;;;;5051402;28;20053;-71
2024/01/28 08:10:01;;;;;;;39.07;36.20;;;3.90;99.90;;;;;;5051728;28;20064;-72
2024/01/28 08:12:27;;;;;;;40.17;37.67;;;4.00;99.90;;;;;;5051523;28;20056;-73
2024/01/28 08:14:53;;;;;;;35.93;33.30;;;4.00;99.90;;;;;;5051639;28;20459;-71
2024/01/28 08:17:19;;;;;;;48.70;45.47;;;4.10;99.90;;;;;;5051012;28;20040;-72
2024/01/28 08:19:45;;;;;;;49.13;45.97;;;4.00;99.90;;;;;;5051576;28;20049;-71
2024/01/28 08:22:12;;;;;;;46.47;43.47;;;4.10;99.90;;;;;;5051428;28;20033;-72
2024/01/28 08:24:38;;;;;;;48.63;45.07;;;4.10;99.90;;;;;;5051145;28;20045;-72
2024/01/28 08:27:04;;;;;;;48.63;45.60;;;4.10;99.90;;;;;;5051299;28;20033;-71
2024/01/28 08:29:30;;;;;;;48.97;45.33;;;4.10;99.90;;;;;;5051895;28;20040;-71
2024/01/28 08:31:59;;;;;;;49.47;46.47;;;4.10;99.90;;;;;;5049979;28;20068;-72
2024/01/28 08:34:25;;;;;;;43.00;39.83;;;4.20;99.90;;;;;;5050912;28;20045;-71
2024/01/28 08:36:51;;;;;;;46.00;43.07;;;4.20;99.90;;;;;;5051560;28;20028;-71
2024/01/28 08:39:17;;;;;;;40.90;38.20;;;4.20;99.90;;;;;;5051683;28;20029;-71
2024/01/28 08:41:43;;;;;;;44.67;41.83;;;4.20;99.90;;;;;;5051161;28;20036;-73
2024/01/28 08:44:10;;;;;;;45.67;42.93;;;4.20;99.90;;;;;;5051288;28;20037;-72
2024/01/28 08:46:40;;;;;;;58.13;54.47;;;4.10;99.90;;;;;;5049622;28;20036;-72
2024/01/28 08:49:06;;;;;;;42.30;39.50;;;4.10;99.90;;;;;;5051084;28;20057;-72
2024/01/28 08:51:32;;;;;;;43.90;41.00;;;4.10;99.90;;;;;;5051253;28;20035;-74
2024/01/28 08:53:58;;;;;;;42.03;38.97;;;4.10;99.90;;;;;;5051530;28;20080;-74
2024/01/28 08:56:24;;;;;;;40.53;38.03;;;4.20;99.90;;;;;;5051163;28;20029;-72
2024/01/28 08:58:51;;;;;;;42.10;39.50;;;4.20;99.90;;;;;;5051571;28;20056;-71
2024/01/28 09:01:17;;;;;;;43.47;40.80;;;4.20;99.90;;;;;;5049954;28;20029;-71
2024/01/28 09:03:43;;;;;;;52.77;49.13;;;4.30;99.90;;;;;;5052906;28;20029;-72
2024/01/28 09:06:09;;;;;;;55.50;52.33;;;4.40;99.90;;;;;;5054934;28;20029;-72
2024/01/28 09:08:35;;;;;;;48.33;45.20;;;4.40;99.90;;;;;;5037104;28;20394;-71
2024/01/28 09:11:01;;;;;;;51.23;47.93;;;4.50;99.90;;;;;;5054683;28;20040;-72
2024/01/28 09:13:27;;;;;;;53.07;49.80;;;4.60;99.90;;;;;;5054803;28;20049;-71
2024/01/28 09:15:54;;;;;;;51.53;47.90;;;4.60;99.90;;;;;;5053873;28;20506;-71
2024/01/28 09:18:21;;;;;;;46.27;43.17;;;4.60;99.90;;;;;;5054819;28;20044;-72
2024/01/28 09:20:47;;;;;;;45.23;42.33;;;4.70;99.90;;;;;;5049176;28;20378;-72
2024/01/28 09:23:13;;;;;;;44.13;41.03;;;4.80;99.90;;;;;;5035014;28;20041;-71
2024/01/28 09:25:39;;;;;;;35.73;33.80;;;4.90;99.90;;;;;;5034532;28;20052;-71
2024/01/28 09:28:07;;;;;;;46.53;43.43;;;4.90;99.90;;;;;;5034804;28;20049;-72
2024/01/28 09:30:33;;;;;;;49.73;46.73;;;5.00;99.90;;;;;;5033041;28;20435;-72
2024/01/28 09:32:59;;;;;;;45.57;42.60;;;5.10;99.90;;;;;;5034748;28;20033;-72
2024/01/28 09:35:25;;;;;;;50.50;47.43;;;5.20;99.90;;;;;;5016809;28;20511;-72
2024/01/28 09:37:54;;;;;;;48.23;45.33;;;5.30;99.90;;;;;;5034747;28;20037;-72
2024/01/28 09:40:20;;;;;;;55.13;51.53;;;5.40;99.90;;;;;;5033758;28;20048;-72
2024/01/28 09:42:59;;;;;;;52.17;49.00;;;5.40;99.90;;;;;;5000766;28;20404;-72
2024/01/28 09:45:26;;;;;;;57.60;54.30;;;5.60;99.90;;;;;;5000183;28;20037;-72
2024/01/28 09:47:53;;;;;;;49.37;46.03;;;5.70;99.90;;;;;;5033941;28;20049;-72
2024/01/28 09:50:19;;;;;;;53.67;50.10;;;5.80;99.90;;;;;;5016725;28;20029;-72
2024/01/28 09:52:45;;;;;;;48.53;45.43;;;5.80;99.90;;;;;;5016201;28;20033;-72
2024/01/28 09:55:11;;;;;;;52.23;49.13;;;5.90;99.90;;;;;;5033598;28;20116;-72
2024/01/28 09:57:38;;;;;;;54.60;51.33;;;6.00;99.90;;;;;;5034301;28;20483;-72
2024/01/28 10:00:07;;;;;;;59.50;56.03;;;6.10;99.90;;;;;;5032871;28;20049;-72
2024/01/28 10:02:35;;;;;;;53.47;50.17;;;6.20;99.90;;;;;;5016364;28;20511;-72
2024/01/28 10:05:03;;;;;;;71.57;67.40;;;6.20;99.90;;;;;;5016548;28;20488;-72
2024/01/28 10:07:29;;;;;;;79.17;74.60;;;6.20;99.90;;;;;;5033265;28;20058;-72
2024/01/28 10:09:55;;;;;;;88.87;83.33;;;6.30;99.90;;;;;;5012147;28;20054;-72
2024/01/28 10:12:21;;;;;;;66.30;62.33;;;6.30;99.90;;;;;;5014083;28;20057;-71
2024/01/28 10:14:51;;;;;;;73.23;69.03;;;6.20;99.90;;;;;;5012870;28;20037;-74
2024/01/28 10:17:17;;;;;;;61.33;57.60;;;6.30;99.90;;;;;;5022287;28;20045;-74
2024/01/28 10:19:43;;;;;;;122.03;115.70;;;6.50;99.90;;;;;;5033834;28;20380;-73
2024/01/28 10:22:09;;;;;;;147.87;140.07;;;6.60;99.90;;;;;;5017541;28;20048;-74
2024/01/28 10:24:37;;;;;;;112.70;106.40;;;6.70;99.90;;;;;;5012548;28;20049;-74
2024/01/28 10:27:05;;;;;;;147.87;139.70;;;6.70;99.90;;;;;;5013780;28;20405;-74
2024/01/28 10:29:32;;;;;;;132.82;125.70;;;6.70;99.90;;;;;;5012447;28;20477;-74
2024/01/28 10:32:01;;;;;;;173.05;163.93;;;6.80;99.90;;;;;;5013162;28;20034;-74
2024/01/28 10:34:28;;;;;;;162.23;153.43;;;6.90;99.90;;;;;;5013654;28;20064;-73
2024/01/28 10:36:55;;;;;;;120.93;114.37;;;7.00;99.90;;;;;;5013546;28;20038;-73
2024/01/28 10:39:22;;;;;;;100.90;95.23;;;7.10;99.90;;;;;;5012552;28;20038;-74
2024/01/28 10:41:55;;;;;;;90.22;85.32;;;7.10;99.90;;;;;;5012231;28;20034;-74
2024/01/28 10:44:21;;;;;;;97.78;92.55;;;7.20;99.90;;;;;;5011998;28;20034;-73
2024/01/28 10:46:47;;;;;;;99.35;93.85;;;7.20;99.90;;;;;;5011723;28;20409;-74
2024/01/28 10:49:13;;;;;;;78.82;74.47;;;7.20;99.90;;;;;;5012344;28;20053;-73
2024/01/28 10:51:39;;;;;;;105.70;99.68;;;7.30;99.90;;;;;;5011128;28;20404;-74
2024/01/28 10:54:07;;;;;;;109.00;102.85;;;7.30;99.90;;;;;;5013506;28;20042;-74
2024/01/28 10:56:34;;;;;;;141.65;134.13;;;7.40;99.90;;;;;;5013070;28;20366;-73
2024/01/28 10:59:00;;;;;;;106.47;100.43;;;7.50;99.90;;;;;;5012118;28;20033;-73
2024/01/28 11:01:26;;;;;;;81.35;76.85;;;7.60;99.90;;;;;;5012677;28;20049;-73
2024/01/28 11:03:53;;;;;;;116.93;110.57;;;7.60;99.90;;;;;;5012289;28;20511;-74
2024/01/28 11:06:19;;;;;;;111.45;105.22;;;7.70;99.90;;;;;;5013002;28;20034;-73
2024/01/28 11:08:45;;;;;;;135.82;128.45;;;7.70;99.90;;;;;;5014142;28;20065;-74
2024/01/28 11:11:15;;;;;;;112.90;106.63;;;7.80;99.90;;;;;;5014697;28;20045;-71
2024/01/28 11:13:42;;;;;;;144.63;136.32;;;7.90;99.90;;;;;;5032038;28;20403;-72
2024/01/28 11:16:10;;;;;;;118.30;111.95;;;8.00;99.90;;;;;;5014746;28;20052;-74
2024/01/28 11:18:36;;;;;;;92.57;87.45;;;8.10;99.90;;;;;;5052514;28;20033;-74
2024/01/28 11:21:12;;;;;;;86.53;81.57;;;8.20;99.90;;;;;;5045058;28;20384;-74
2024/01/28 11:23:43;;;;;;;87.53;82.75;;;8.30;99.90;;;;;;5014285;28;20042;-73
2024/01/28 11:26:14;;;;;;;99.38;93.75;;;8.40;99.90;;;;;;5031309;28;20041;-74
2024/01/28 11:28:48;;;;;;;97.65;92.43;;;8.50;99.90;;;;;;4998855;28;20057;-71
2024/01/28 11:31:22;;;;;;;91.85;86.75;;;8.60;99.90;;;;;;5031809;28;20033;-74
2024/01/28 11:33:48;;;;;;;116.78;110.57;;;8.70;99.90;;;;;;5032590;28;20029;-73
2024/01/28 11:36:16;;;;;;;92.85;87.85;;;8.90;99.90;;;;;;5032224;28;20058;-71
2024/01/28 11:38:42;;;;;;;91.97;87.00;;;9.00;99.90;;;;;;4998804;28;20030;-74
2024/01/28 11:41:10;;;;;;;92.22;87.28;;;9.10;99.90;;;;;;5004955;28;20521;-74
2024/01/28 11:43:36;;;;;;;106.50;100.60;;;9.20;99.90;;;;;;5033724;28;20033;-74
2024/01/28 11:46:03;;;;;;;85.63;80.78;;;9.30;99.90;;;;;;5051402;28;20029;-72
2024/01/28 11:48:29;;;;;;;104.85;99.20;;;9.50;99.90;;;;;;5034607;28;20032;-74
2024/01/28 11:50:55;;;;;;;89.63;84.80;;;9.50;99.90;;;;;;5051914;28;20033;-74
2024/01/28 11:53:21;;;;;;;97.30;91.90;;;9.50;99.90;;;;;;5051816;28;20044;-71
2024/01/28 11:55:47;;;;;;;97.32;92.10;;;9.60;99.90;;;;;;5050902;28;20060;-71
2024/01/28 11:58:16;;;;;;;89.72;84.72;;;9.60;99.90;;;;;;5052215;28;20028;-72
2024/01/28 12:00:42;;;;;;;89.85;84.88;;;9.70;99.90;;;;;;5033370;28;20404;-74
2024/01/28 12:03:08;;;;;;;92.63;87.50;;;9.70;99.90;;;;;;5052168;28;20036;-72
2024/01/28 12:05:34;;;;;;;111.15;105.30;;;9.70;99.90;;;;;;5033879;28;20509;-72
2024/01/28 12:08:01;;;;;;;92.30;87.07;;;9.70;99.90;;;;;;5052152;28;20029;-72
2024/01/28 12:10:28;;;;;;;98.88;93.55;;;9.80;99.90;;;;;;5030095;28;20072;-72
2024/01/28 12:12:55;;;;;;;90.88;85.75;;;9.80;99.90;;;;;;5031983;28;20055;-72
2024/01/28 12:15:21;;;;;;;109.00;102.75;;;9.90;99.90;;;;;;5031265;28;20041;-72
2024/01/28 12:17:48;;;;;;;95.18;89.85;;;9.90;99.90;;;;;;5031638;28;20022;-72
2024/01/28 12:20:21;;;;;;;100.63;94.97;;;10.10;99.90;;;;;;5031455;28;20045;-71
2024/01/28 12:22:47;;;;;;;94.28;89.30;;;10.20;99.90;;;;;;5010814;28;20033;-72
2024/01/28 12:25:20;;;;;;;102.07;96.80;;;10.30;99.90;;;;;;5011533;28;20037;-72
2024/01/28 12:27:46;;;;;;;135.85;128.57;;;10.30;99.90;;;;;;5011935;28;20045;-71
2024/01/28 12:30:12;;;;;;;92.85;87.80;;;10.20;99.90;;;;;;5011276;28;20046;-72